createdAt,value
2017-12-20T00:01:58.674Z,1.33
2017-12-20T00:04:33.975Z,1.38
2017-12-20T00:07:08.494Z,1.37
2017-12-20T00:09:42.996Z,1.43
2017-12-20T00:12:17.530Z,1.56
2017-12-20T00:14:52.061Z,1.53
2017-12-20T00:17:26.970Z,1.47
2017-12-20T00:20:01.518Z,1.53
2017-12-20T00:22:36.118Z,1.45
2017-12-20T00:25:10.625Z,1.49
2017-12-20T00:27:45.214Z,1.51
2017-12-20T00:30:19.588Z,1.51
2017-12-20T00:32:54.106Z,1.53
2017-12-20T00:35:28.474Z,1.47
2017-12-20T00:38:03.037Z,1.54
2017-12-20T00:40:37.448Z,1.50
2017-12-20T00:43:11.958Z,1.61
2017-12-20T00:45:46.631Z,1.71
2017-12-20T00:48:21.146Z,1.64
2017-12-20T00:50:55.552Z,1.69
2017-12-20T00:53:30.046Z,1.74
2017-12-20T00:56:04.499Z,1.66
2017-12-20T00:58:39.011Z,1.66
2017-12-20T01:01:13.414Z,1.72
2017-12-20T01:03:48.429Z,1.69
2017-12-20T01:06:22.876Z,1.65
2017-12-20T01:08:57.086Z,1.66
2017-12-20T01:11:31.506Z,1.67
2017-12-20T01:14:06.066Z,1.63
2017-12-20T01:16:41.062Z,1.73
2017-12-20T01:19:15.598Z,1.71
2017-12-20T01:21:50.230Z,1.80
2017-12-20T01:24:24.735Z,1.85
2017-12-20T01:27:00.003Z,1.80
2017-12-20T01:29:34.473Z,1.89
2017-12-20T01:32:08.955Z,1.94
2017-12-20T01:34:44.195Z,1.98
2017-12-20T01:37:18.742Z,1.80
2017-12-20T01:39:53.307Z,1.78
2017-12-20T01:42:27.533Z,1.66
2017-12-20T01:45:01.742Z,1.66
2017-12-20T01:47:36.195Z,1.70
2017-12-20T01:50:10.702Z,1.69
2017-12-20T01:52:45.286Z,1.74
2017-12-20T01:55:20.018Z,1.64
2017-12-20T01:57:54.103Z,1.60
2017-12-20T02:00:28.724Z,1.62
2017-12-20T02:03:03.282Z,1.57
2017-12-20T02:05:37.667Z,1.64
2017-12-20T02:08:12.206Z,1.61
2017-12-20T02:10:46.638Z,1.24
2017-12-20T02:13:21.156Z,1.58
2017-12-20T02:15:55.602Z,1.62
2017-12-20T02:18:30.133Z,1.60
2017-12-20T02:21:04.006Z,1.54
2017-12-20T02:23:38.530Z,1.53
2017-12-20T02:26:12.988Z,1.53
2017-12-20T02:28:47.471Z,1.57
2017-12-20T02:31:21.588Z,1.58
2017-12-20T02:33:55.802Z,1.59
2017-12-20T02:36:29.880Z,1.62
2017-12-20T02:39:05.468Z,1.69
2017-12-20T02:41:39.676Z,1.70
2017-12-20T02:44:13.880Z,1.70
2017-12-20T02:46:48.292Z,1.71
2017-12-20T02:49:22.541Z,1.69
2017-12-20T02:51:56.346Z,1.68
2017-12-20T02:54:30.550Z,1.68
2017-12-20T02:57:04.422Z,1.62
2017-12-20T02:59:38.676Z,1.60
2017-12-20T03:02:13.083Z,1.68
2017-12-20T03:04:48.430Z,1.71
2017-12-20T03:07:22.479Z,1.64
2017-12-20T03:09:56.650Z,1.63
2017-12-20T03:12:31.143Z,1.68
2017-12-20T03:15:05.363Z,1.73
2017-12-20T03:17:39.918Z,1.78
2017-12-20T03:20:14.332Z,1.83
2017-12-20T03:22:48.856Z,1.75
2017-12-20T03:25:23.970Z,1.77
2017-12-20T03:27:58.389Z,1.77
2017-12-20T03:30:32.748Z,1.71
2017-12-20T03:33:06.978Z,1.67
2017-12-20T03:35:41.364Z,1.69
2017-12-20T03:38:15.853Z,1.78
2017-12-20T03:40:51.210Z,1.82
2017-12-20T03:43:26.898Z,1.87
2017-12-20T03:46:00.942Z,1.95
2017-12-20T03:48:36.018Z,1.92
2017-12-20T03:51:10.446Z,1.98
2017-12-20T03:53:44.590Z,1.89
2017-12-20T03:56:19.042Z,1.87
2017-12-20T03:58:53.854Z,1.98
2017-12-20T04:01:28.250Z,1.94
2017-12-20T04:04:02.802Z,1.99
2017-12-20T04:06:37.218Z,2.04
2017-12-20T04:09:11.714Z,1.93
2017-12-20T04:11:46.172Z,1.97
2017-12-20T04:14:20.623Z,1.93
2017-12-20T04:16:55.063Z,1.86
2017-12-20T04:19:29.637Z,1.81
2017-12-20T04:22:04.341Z,1.87
2017-12-20T04:24:38.905Z,1.79
2017-12-20T04:27:14.054Z,1.85
2017-12-20T04:29:48.653Z,1.73
2017-12-20T04:32:23.047Z,1.84
2017-12-20T04:34:57.553Z,1.88
2017-12-20T04:37:31.990Z,1.91
2017-12-20T04:40:06.364Z,0.46
2017-12-20T04:42:40.882Z,1.86
2017-12-20T04:45:15.324Z,1.86
2017-12-20T04:47:49.698Z,1.84
2017-12-20T04:50:24.118Z,1.91
2017-12-20T04:52:58.615Z,1.91
2017-12-20T04:55:33.742Z,1.94
2017-12-20T04:58:08.133Z,1.92
2017-12-20T05:00:42.496Z,2.01
2017-12-20T05:03:17.027Z,2.06
2017-12-20T05:05:51.531Z,2.05
2017-12-20T05:08:26.279Z,2.17
2017-12-20T05:11:00.679Z,2.20
2017-12-20T05:13:35.254Z,2.06
2017-12-20T05:16:09.623Z,1.98
2017-12-20T05:18:44.148Z,1.98
2017-12-20T05:21:18.173Z,2.04
2017-12-20T05:23:52.781Z,2.05
2017-12-20T05:26:27.181Z,2.01
2017-12-20T05:29:01.691Z,2.08
2017-12-20T05:31:36.470Z,2.02
2017-12-20T05:34:11.053Z,2.03
2017-12-20T05:36:45.446Z,1.98
2017-12-20T05:39:19.940Z,1.95
2017-12-20T05:41:54.314Z,2.00
2017-12-20T05:44:29.628Z,2.00
2017-12-20T05:47:04.078Z,2.01
2017-12-20T05:49:38.631Z,2.14
2017-12-20T05:52:13.022Z,2.16
2017-12-20T05:54:47.565Z,2.22
2017-12-20T05:57:21.949Z,2.18
2017-12-20T05:59:56.565Z,2.11
2017-12-20T06:02:30.988Z,2.02
2017-12-20T06:05:05.495Z,1.76
2017-12-20T06:07:39.985Z,1.98
2017-12-20T06:10:14.384Z,2.01
2017-12-20T06:12:48.911Z,2.02
2017-12-20T06:15:23.357Z,2.03
2017-12-20T06:17:57.890Z,2.00
2017-12-20T06:20:32.393Z,1.98
2017-12-20T06:23:06.954Z,2.08
2017-12-20T06:25:41.494Z,2.16
2017-12-20T06:28:16.111Z,2.28
2017-12-20T06:30:50.517Z,2.26
2017-12-20T06:33:25.013Z,2.28
2017-12-20T06:35:59.443Z,2.21
2017-12-20T06:38:33.872Z,2.25
2017-12-20T06:41:08.341Z,2.28
2017-12-20T06:43:42.827Z,2.23
2017-12-20T06:46:17.210Z,2.16
2017-12-20T06:48:51.782Z,2.14
2017-12-20T06:51:26.194Z,2.17
2017-12-20T06:54:00.591Z,2.15
2017-12-20T06:56:35.777Z,2.07
2017-12-20T06:59:10.281Z,2.14
2017-12-20T07:01:44.654Z,2.22
2017-12-20T07:04:19.149Z,2.15
2017-12-20T07:06:53.850Z,2.27
2017-12-20T07:09:28.638Z,2.26
2017-12-20T07:12:03.122Z,2.25
2017-12-20T07:14:37.616Z,2.29
2017-12-20T07:17:12.013Z,2.25
2017-12-20T07:19:46.489Z,2.18
2017-12-20T07:22:20.969Z,2.25
2017-12-20T07:24:56.352Z,2.35
2017-12-20T07:27:30.883Z,2.39
2017-12-20T07:30:06.406Z,2.40
2017-12-20T07:32:40.823Z,2.39
2017-12-20T07:35:15.908Z,2.48
2017-12-20T07:37:50.475Z,2.44
2017-12-20T07:40:25.042Z,2.25
2017-12-20T07:42:59.582Z,2.35
2017-12-20T07:45:34.006Z,2.32
2017-12-20T07:48:08.514Z,2.39
2017-12-20T07:50:43.006Z,2.30
2017-12-20T07:53:17.539Z,2.25
2017-12-20T07:55:51.965Z,2.30
2017-12-20T07:58:26.852Z,2.29
2017-12-20T08:01:01.245Z,2.23
2017-12-20T08:03:35.758Z,2.18
2017-12-20T08:06:10.207Z,2.22
2017-12-20T08:08:44.614Z,1.95
2017-12-20T08:11:19.594Z,2.11
2017-12-20T08:13:54.085Z,2.09
2017-12-20T08:16:28.505Z,2.04
2017-12-20T08:19:02.933Z,2.08
2017-12-20T08:21:37.403Z,2.06
2017-12-20T08:24:13.255Z,2.04
2017-12-20T08:26:48.497Z,2.14
2017-12-20T08:29:22.894Z,2.09
2017-12-20T08:31:57.338Z,2.10
2017-12-20T08:34:31.843Z,2.31
2017-12-20T08:37:06.231Z,2.22
2017-12-20T08:39:40.770Z,2.24
2017-12-20T08:42:15.171Z,2.24
2017-12-20T08:44:49.583Z,2.28
2017-12-20T08:47:24.164Z,2.36
2017-12-20T08:49:59.725Z,2.34
2017-12-20T08:52:34.206Z,2.38
2017-12-20T08:55:08.922Z,2.38
2017-12-20T08:57:43.425Z,2.30
2017-12-20T09:00:17.927Z,2.40
2017-12-20T09:02:52.526Z,2.39
2017-12-20T09:05:27.066Z,2.28
2017-12-20T09:08:01.608Z,2.37
2017-12-20T09:10:36.075Z,2.40
2017-12-20T09:13:11.354Z,2.54
2017-12-20T09:15:46.015Z,2.52
2017-12-20T09:18:20.530Z,2.69
2017-12-20T09:20:55.003Z,2.51
2017-12-20T09:23:29.882Z,2.38
2017-12-20T09:26:04.510Z,2.42
2017-12-20T09:28:39.022Z,2.51
2017-12-20T09:31:13.379Z,2.45
2017-12-20T09:33:47.870Z,2.47
2017-12-20T09:36:22.363Z,2.59
2017-12-20T09:38:56.959Z,2.52
2017-12-20T09:41:31.690Z,2.49
2017-12-20T09:44:06.283Z,2.54
2017-12-20T09:46:40.790Z,2.48
2017-12-20T09:49:15.163Z,2.24
2017-12-20T09:51:49.522Z,2.56
2017-12-20T09:54:24.152Z,2.61
2017-12-20T09:56:58.686Z,2.67
2017-12-20T09:59:33.211Z,2.53
2017-12-20T10:02:07.281Z,2.70
2017-12-20T10:04:41.889Z,2.66
2017-12-20T10:07:16.687Z,2.56
2017-12-20T10:09:51.143Z,2.64
2017-12-20T10:12:25.270Z,2.65
2017-12-20T10:14:59.830Z,2.64
2017-12-20T10:17:34.213Z,2.49
2017-12-20T10:20:09.574Z,2.70
2017-12-20T10:22:43.927Z,2.79
2017-12-20T10:25:18.342Z,2.82
2017-12-20T10:27:52.931Z,2.77
2017-12-20T10:30:27.355Z,2.81
2017-12-20T10:33:01.863Z,2.72
2017-12-20T10:35:36.463Z,2.79
2017-12-20T10:38:10.977Z,2.85
2017-12-20T10:40:45.466Z,2.76
2017-12-20T10:43:19.976Z,2.82
2017-12-20T10:45:54.350Z,2.80
2017-12-20T10:48:28.802Z,2.91
2017-12-20T10:51:03.281Z,2.96
2017-12-20T10:53:38.598Z,2.90
2017-12-20T10:56:13.216Z,3.01
2017-12-20T10:58:47.608Z,2.93
2017-12-20T11:01:22.132Z,2.97
2017-12-20T11:03:57.383Z,2.97
2017-12-20T11:06:31.941Z,2.92
2017-12-20T11:09:08.318Z,2.99
2017-12-20T11:11:42.822Z,2.97
2017-12-20T11:14:17.327Z,2.96
2017-12-20T11:16:51.726Z,2.87
2017-12-20T11:19:26.248Z,2.96
2017-12-20T11:22:01.057Z,2.86
2017-12-20T11:24:35.490Z,2.98
2017-12-20T11:27:10.070Z,2.91
2017-12-20T11:29:44.684Z,2.91
2017-12-20T11:32:19.228Z,2.81
2017-12-20T11:34:53.673Z,3.06
2017-12-20T11:37:28.086Z,3.03
2017-12-20T11:40:02.644Z,2.99
2017-12-20T11:42:37.150Z,2.67
2017-12-20T11:45:11.726Z,3.26
2017-12-20T11:47:46.233Z,3.11
2017-12-20T11:50:20.650Z,3.21
2017-12-20T11:52:55.219Z,3.07
2017-12-20T11:55:29.614Z,3.21
2017-12-20T11:58:04.214Z,3.24
2017-12-20T12:00:38.318Z,3.33
2017-12-20T12:03:12.828Z,3.29
2017-12-20T12:05:47.078Z,3.32
2017-12-20T12:08:21.474Z,3.40
2017-12-20T12:10:55.831Z,3.40
2017-12-20T12:13:30.351Z,3.52
2017-12-20T12:16:05.492Z,3.49
2017-12-20T12:18:39.952Z,3.57
2017-12-20T12:21:14.415Z,3.51
2017-12-20T12:23:48.973Z,3.47
2017-12-20T12:26:23.386Z,3.43
2017-12-20T12:28:57.932Z,3.51
2017-12-20T12:31:32.396Z,3.41
2017-12-20T12:34:07.059Z,3.33
2017-12-20T12:36:41.659Z,3.38
2017-12-20T12:39:16.182Z,3.32
2017-12-20T12:41:50.560Z,3.34
2017-12-20T12:44:25.149Z,3.36
2017-12-20T12:46:59.554Z,3.24
2017-12-20T12:49:34.105Z,3.28
2017-12-20T12:52:08.534Z,3.31
2017-12-20T12:54:43.103Z,3.16
2017-12-20T12:57:17.566Z,3.25
2017-12-20T12:59:52.142Z,3.26
2017-12-20T13:02:26.723Z,3.27
2017-12-20T13:05:01.256Z,3.21
2017-12-20T13:07:35.326Z,3.24
2017-12-20T13:10:09.703Z,3.21
2017-12-20T13:12:44.042Z,3.16
2017-12-20T13:15:18.570Z,3.15
2017-12-20T13:17:53.147Z,3.13
2017-12-20T13:20:28.089Z,3.12
2017-12-20T13:23:02.640Z,3.12
2017-12-20T13:25:37.047Z,3.20
2017-12-20T13:28:11.571Z,3.01
2017-12-20T13:30:47.001Z,3.23
2017-12-20T13:33:21.683Z,3.12
2017-12-20T13:35:56.258Z,3.17
2017-12-20T13:38:30.902Z,3.15
2017-12-20T13:41:05.384Z,3.15
2017-12-20T13:43:39.909Z,3.19
2017-12-20T13:46:14.306Z,3.25
2017-12-20T13:48:48.926Z,3.22
2017-12-20T13:51:23.382Z,3.21
2017-12-20T13:53:57.769Z,3.18
2017-12-20T13:56:32.162Z,3.27
2017-12-20T13:59:06.683Z,3.31
2017-12-20T14:01:40.878Z,3.26
2017-12-20T14:04:15.482Z,3.24
2017-12-20T14:06:49.939Z,3.16
2017-12-20T14:09:24.597Z,3.16
2017-12-20T14:11:58.968Z,3.29
2017-12-20T14:14:33.587Z,3.36
2017-12-20T14:17:07.958Z,3.37
2017-12-20T14:19:42.326Z,3.36
2017-12-20T14:22:16.710Z,3.38
2017-12-20T14:24:51.257Z,3.37
2017-12-20T14:27:26.060Z,3.10
2017-12-20T14:30:00.761Z,3.15
2017-12-20T14:32:35.362Z,3.15
2017-12-20T14:35:09.844Z,3.19
2017-12-20T14:37:44.406Z,3.22
2017-12-20T14:40:19.041Z,3.10
2017-12-20T14:42:53.410Z,3.10
2017-12-20T14:45:27.795Z,3.10
2017-12-20T14:48:02.366Z,3.03
2017-12-20T14:50:37.141Z,2.99
2017-12-20T14:53:11.542Z,2.98
2017-12-20T14:55:45.614Z,3.07
2017-12-20T14:58:19.714Z,3.14
2017-12-20T15:00:54.195Z,3.10
2017-12-20T15:03:28.589Z,3.05
2017-12-20T15:06:03.089Z,3.03
2017-12-20T15:08:38.258Z,2.98
2017-12-20T15:11:12.804Z,3.04
2017-12-20T15:13:46.975Z,3.01
2017-12-20T15:16:21.782Z,3.11
2017-12-20T15:18:56.217Z,3.08
2017-12-20T15:21:30.627Z,2.97
2017-12-20T15:24:05.466Z,2.95
2017-12-20T15:26:40.223Z,3.00
2017-12-20T15:29:16.373Z,3.02
2017-12-20T15:31:50.536Z,2.85
2017-12-20T15:34:24.766Z,2.83
2017-12-20T15:36:59.818Z,2.87
2017-12-20T15:39:34.008Z,2.92
2017-12-20T15:42:08.070Z,2.91
2017-12-20T15:44:42.598Z,2.86
2017-12-20T15:47:16.983Z,2.95
2017-12-20T15:49:51.556Z,2.88
2017-12-20T15:52:26.437Z,2.96
2017-12-20T15:55:01.018Z,2.91
2017-12-20T15:57:35.395Z,2.91
2017-12-20T16:00:09.215Z,2.94
2017-12-20T16:02:43.633Z,2.94
2017-12-20T16:05:17.737Z,2.90
2017-12-20T16:07:52.358Z,2.94
2017-12-20T16:10:27.657Z,2.94
2017-12-20T16:13:02.226Z,2.90
2017-12-20T16:15:37.004Z,2.90
2017-12-20T16:18:11.565Z,2.87
2017-12-20T16:20:45.978Z,2.96
2017-12-20T16:23:20.505Z,2.95
2017-12-20T16:25:55.276Z,2.92
2017-12-20T16:28:29.858Z,2.85
2017-12-20T16:31:04.397Z,2.88
2017-12-20T16:33:40.055Z,2.83
2017-12-20T16:36:14.586Z,2.77
2017-12-20T16:38:48.978Z,2.85
2017-12-20T16:41:23.366Z,2.85
2017-12-20T16:43:57.966Z,2.79
2017-12-20T16:46:32.333Z,2.82
2017-12-20T16:49:06.836Z,2.83
2017-12-20T16:51:40.875Z,2.91
2017-12-20T16:54:15.472Z,2.86
2017-12-20T16:56:49.854Z,2.86
2017-12-20T16:59:24.342Z,2.87
2017-12-20T17:01:58.807Z,2.91
2017-12-20T17:04:33.379Z,2.93
2017-12-20T17:07:07.766Z,2.95
2017-12-20T17:09:42.353Z,2.93
2017-12-20T17:12:16.737Z,2.93
2017-12-20T17:14:51.135Z,2.92
2017-12-20T17:17:25.586Z,2.94
2017-12-20T17:20:00.295Z,2.97
2017-12-20T17:22:34.827Z,3.09
2017-12-20T17:25:09.266Z,3.05
2017-12-20T17:27:43.896Z,3.08
2017-12-20T17:30:18.331Z,3.08
2017-12-20T17:32:52.947Z,2.99
2017-12-20T17:35:27.420Z,3.11
2017-12-20T17:38:01.886Z,3.18
2017-12-20T17:40:36.048Z,3.21
2017-12-20T17:43:10.730Z,3.19
2017-12-20T17:45:45.093Z,3.20
2017-12-20T17:48:19.902Z,3.15
2017-12-20T17:50:54.447Z,3.12
2017-12-20T17:53:28.893Z,3.17
2017-12-20T17:56:03.561Z,3.06
2017-12-20T17:58:37.937Z,3.00
2017-12-20T18:01:12.034Z,3.04
2017-12-20T18:03:46.702Z,3.11
2017-12-20T18:06:21.437Z,3.13
2017-12-20T18:08:55.921Z,3.13
2017-12-20T18:11:30.623Z,3.07
2017-12-20T18:14:04.818Z,2.96
2017-12-20T18:16:39.209Z,3.06
2017-12-20T18:19:13.739Z,3.05
2017-12-20T18:21:48.534Z,2.95
2017-12-20T18:24:23.829Z,3.02
2017-12-20T18:26:59.397Z,3.04
2017-12-20T18:29:33.990Z,3.04
2017-12-20T18:32:09.375Z,3.08
2017-12-20T18:34:43.734Z,3.05
2017-12-20T18:37:18.116Z,3.07
2017-12-20T18:39:52.727Z,3.11
2017-12-20T18:42:26.989Z,3.12
2017-12-20T18:45:01.782Z,2.98
2017-12-20T18:47:36.147Z,3.07
2017-12-20T18:50:10.598Z,3.04
2017-12-20T18:52:45.431Z,3.09
2017-12-20T18:55:20.512Z,2.98
2017-12-20T18:57:55.100Z,2.99
2017-12-20T19:02:55.390Z,3.02
2017-12-20T19:05:30.158Z,3.04
2017-12-20T19:08:04.750Z,2.99
2017-12-20T19:10:39.133Z,2.98
2017-12-20T19:13:13.648Z,3.05
2017-12-20T19:15:48.791Z,3.03
2017-12-20T19:18:23.223Z,2.99
2017-12-20T19:20:57.676Z,2.94
2017-12-20T19:23:32.277Z,2.99
2017-12-20T19:26:06.875Z,2.91
2017-12-20T19:28:41.403Z,2.98
2017-12-20T19:31:15.774Z,2.98
2017-12-20T19:33:50.293Z,2.99
2017-12-20T19:36:24.764Z,2.98
2017-12-20T19:38:59.622Z,2.98
2017-12-20T19:41:34.536Z,3.00
2017-12-20T19:44:09.035Z,2.91
2017-12-20T19:46:44.230Z,2.98
2017-12-20T19:49:18.750Z,3.00
2017-12-20T19:51:53.166Z,2.96
2017-12-20T19:54:28.660Z,2.97
2017-12-20T19:57:03.006Z,3.04
2017-12-20T19:59:37.506Z,3.05
2017-12-20T20:02:11.901Z,3.07
2017-12-20T20:04:46.448Z,3.06
2017-12-20T20:07:20.802Z,3.07
2017-12-20T20:09:55.119Z,3.03
2017-12-20T20:12:29.813Z,3.06
2017-12-20T20:15:05.143Z,3.07
2017-12-20T20:17:39.630Z,3.03
2017-12-20T20:20:13.985Z,3.03
2017-12-20T20:22:48.438Z,3.07
2017-12-20T20:25:22.853Z,2.96
2017-12-20T20:27:59.684Z,3.13
2017-12-20T20:30:34.250Z,2.99
2017-12-20T20:33:08.934Z,3.03
2017-12-20T20:35:43.295Z,2.99
2017-12-20T20:38:17.810Z,3.01
2017-12-20T20:40:52.296Z,2.73
2017-12-20T20:43:26.838Z,2.98
2017-12-20T20:46:00.975Z,2.95
2017-12-20T20:48:37.369Z,3.00
2017-12-20T20:51:12.228Z,2.98
2017-12-20T20:53:46.938Z,2.98
2017-12-20T20:56:21.310Z,2.97
2017-12-20T20:58:55.942Z,2.99
2017-12-20T21:01:30.646Z,2.98
2017-12-20T21:04:05.247Z,2.95
2017-12-20T21:06:40.206Z,2.92
2017-12-20T21:09:14.608Z,2.95
2017-12-20T21:11:49.035Z,3.02
2017-12-20T21:14:24.070Z,2.99
2017-12-20T21:16:58.480Z,3.04
2017-12-20T21:19:32.935Z,3.04
2017-12-20T21:22:07.355Z,3.03
2017-12-20T21:24:41.859Z,3.05
2017-12-20T21:27:16.267Z,3.01
2017-12-20T21:29:50.688Z,3.00
2017-12-20T21:32:25.199Z,3.04
2017-12-20T21:34:59.568Z,3.08
2017-12-20T21:37:33.966Z,2.82
2017-12-20T21:40:11.985Z,3.03
2017-12-20T21:42:46.368Z,3.04
2017-12-20T21:45:20.787Z,3.04
2017-12-20T21:47:55.269Z,3.10
2017-12-20T21:50:29.935Z,3.18
2017-12-20T21:53:04.503Z,3.15
2017-12-20T21:55:38.704Z,3.11
2017-12-20T21:58:13.190Z,3.16
2017-12-20T22:00:47.602Z,3.12
2017-12-20T22:03:22.053Z,3.17
2017-12-20T22:05:57.323Z,3.18
2017-12-20T22:08:32.477Z,3.10
2017-12-20T22:11:09.189Z,3.09
2017-12-20T22:13:44.119Z,3.14
2017-12-20T22:16:18.950Z,2.96
2017-12-20T22:18:53.519Z,3.15
2017-12-20T22:21:28.094Z,3.11
2017-12-20T22:24:02.730Z,3.12
2017-12-20T22:26:37.392Z,3.06
2017-12-20T22:29:11.770Z,3.10
2017-12-20T22:31:46.238Z,3.11
2017-12-20T22:34:20.810Z,3.17
2017-12-20T22:36:55.280Z,3.08
2017-12-20T22:39:29.636Z,3.07
2017-12-20T22:42:04.070Z,3.02
2017-12-20T22:44:39.558Z,3.07
2017-12-20T22:47:14.237Z,3.09
2017-12-20T22:49:48.597Z,3.10
2017-12-20T22:52:23.050Z,3.13
2017-12-20T22:54:57.596Z,3.12
2017-12-20T22:57:32.006Z,3.12
2017-12-20T23:00:14.366Z,3.23
2017-12-20T23:02:48.778Z,3.26
2017-12-20T23:08:03.610Z,3.32
2017-12-20T23:10:38.114Z,3.24
2017-12-20T23:13:12.649Z,3.27
2017-12-20T23:15:47.188Z,3.21
2017-12-20T23:18:21.639Z,3.21
2017-12-20T23:20:56.016Z,3.29
2017-12-20T23:23:30.566Z,3.30
2017-12-20T23:26:04.966Z,3.34
2017-12-20T23:28:39.519Z,3.26
2017-12-20T23:31:13.942Z,3.27
2017-12-20T23:33:48.470Z,3.26
2017-12-20T23:36:22.845Z,3.30
2017-12-20T23:38:57.338Z,3.27
2017-12-20T23:41:31.717Z,3.32
2017-12-20T23:44:06.114Z,3.40
2017-12-20T23:46:40.234Z,3.40
2017-12-20T23:49:14.757Z,3.48
2017-12-20T23:51:49.431Z,3.35
2017-12-20T23:54:23.954Z,3.29
2017-12-20T23:56:58.361Z,3.28
2017-12-20T23:59:32.781Z,3.21
